Time;durP1;ratioP1;P1;durP2;ratioP2;P2;SDS_P1;SDS_P2;PMS_P1;PMS_P2;Temp;Humidity;BMP_temperature;BMP_pressure;BME280_temperature;BME280_humidity;BME280_pressure;Samples;Min_cycle;Max_cycle;Signal;HPM_P1;HPM_P2
2022/12/12 00:00:01;;;;;;;2.80;2.60;;;6.80;99.90;;;6.65;66.31;93679.09;5077734;28;20494;-58
2022/12/12 00:02:29;;;;;;;2.77;2.57;;;6.80;99.90;;;6.63;65.79;93683.63;5072686;28;20459;-55
2022/12/12 00:04:56;;;;;;;2.97;2.77;;;6.80;99.90;;;6.64;66.52;93685.28;5075111;28;20904;-57
2022/12/12 00:07:24;;;;;;;3.10;2.90;;;6.70;99.90;;;6.64;66.58;93682.66;5070521;28;20543;-55
2022/12/12 00:09:51;;;;;;;2.90;2.70;;;6.80;99.90;;;6.66;66.82;93693.78;5078205;28;20509;-56
2022/12/12 00:12:18;;;;;;;3.50;3.00;;;6.80;99.90;;;6.68;66.50;93686.66;5072179;28;20874;-53
2022/12/12 00:14:47;;;;;;;3.50;3.20;;;6.80;99.90;;;6.70;66.31;93692.53;5071074;28;20994;-54
2022/12/12 00:17:14;;;;;;;3.60;3.30;;;6.80;99.90;;;6.72;66.52;93677.53;5072487;28;20532;-56
2022/12/12 00:19:42;;;;;;;2.70;2.50;;;6.80;99.90;;;6.69;66.46;93693.50;5075102;28;20893;-58
2022/12/12 00:22:09;;;;;;;3.17;2.97;;;6.80;99.90;;;6.67;66.64;93705.09;5079728;28;20558;-55
2022/12/12 00:24:36;;;;;;;5.90;3.70;;;6.80;99.90;;;6.67;67.20;93707.69;5078724;28;20473;-59
2022/12/12 00:27:04;;;;;;;3.10;2.90;;;6.80;99.90;;;6.65;66.59;93707.84;5081683;28;20927;-57
2022/12/12 00:29:31;;;;;;;3.03;2.80;;;6.80;99.90;;;6.63;66.77;93707.13;5070332;28;20860;-55
2022/12/12 00:32:00;;;;;;;7.73;3.20;;;6.70;99.90;;;6.63;66.93;93712.38;5079069;28;20459;-57
2022/12/12 00:34:27;;;;;;;2.90;2.70;;;6.70;99.90;;;6.63;66.82;93707.13;5075972;28;20582;-55
2022/12/12 00:36:54;;;;;;;3.10;2.80;;;6.70;99.90;;;6.63;66.73;93707.13;5078512;28;20489;-59
2022/12/12 00:39:22;;;;;;;2.80;2.60;;;6.70;99.90;;;6.62;66.21;93706.31;5069533;28;20482;-56
2022/12/12 00:41:50;;;;;;;2.60;2.40;;;6.70;99.90;;;6.60;66.37;93694.38;5082416;28;20461;-58
2022/12/12 00:44:17;;;;;;;2.40;2.30;;;6.70;99.90;;;6.56;66.64;93699.06;5073719;28;21029;-57
2022/12/12 00:46:45;;;;;;;2.20;2.10;;;6.70;99.90;;;6.54;67.13;93689.75;5079640;28;20450;-54
2022/12/12 00:49:13;;;;;;;2.63;2.43;;;6.70;99.90;;;6.52;66.49;93692.50;5072895;28;21042;-58
2022/12/12 00:51:41;;;;;;;2.53;2.33;;;6.60;99.90;;;6.50;66.50;93693.59;5076125;28;20458;-59
2022/12/12 00:54:08;;;;;;;2.60;2.40;;;6.60;99.90;;;6.49;66.82;93691.94;5076681;28;20881;-58
2022/12/12 00:56:35;;;;;;;2.40;2.30;;;6.60;99.90;;;6.45;66.76;93697.47;5075436;28;20534;-59
2022/12/12 00:59:03;;;;;;;2.63;2.50;;;6.60;99.90;;;6.43;66.44;93690.75;5073671;28;20458;-58
2022/12/12 01:01:31;;;;;;;2.70;2.50;;;6.60;99.90;;;6.41;66.20;93700.50;5079185;28;20458;-58
2022/12/12 01:03:58;;;;;;;2.57;2.40;;;6.50;99.90;;;6.36;65.61;93698.31;5070942;28;20442;-54
2022/12/12 01:06:27;;;;;;;2.20;2.10;;;6.50;99.90;;;6.33;66.10;93716.88;5071681;28;20457;-59
2022/12/12 01:08:54;;;;;;;2.30;2.20;;;6.50;99.90;;;6.32;66.45;93723.09;5074763;28;20454;-57
2022/12/12 01:11:22;;;;;;;2.50;2.40;;;6.40;99.90;;;6.28;66.16;93724.34;5080180;28;20880;-60
2022/12/12 01:13:51;;;;;;;3.57;3.37;;;6.40;99.90;;;6.21;67.06;93716.25;5077157;28;20449;-59
2022/12/12 01:16:18;;;;;;;3.23;3.03;;;6.40;99.90;;;6.09;66.46;93718.19;5079589;28;20488;-58
2022/12/12 01:18:45;;;;;;;3.80;3.50;;;6.30;99.90;;;6.03;66.75;93723.16;5073189;28;20511;-55
2022/12/12 01:21:15;;;;;;;4.43;3.70;;;6.20;99.90;;;6.01;67.06;93731.13;5076872;28;20478;-56
2022/12/12 01:23:44;;;;;;;4.73;4.00;;;6.20;99.90;;;6.01;66.92;93735.53;5076217;28;20447;-56
2022/12/12 01:26:13;;;;;;;6.40;4.10;;;6.20;99.90;;;6.03;67.48;93741.44;5079815;28;20474;-55
2022/12/12 01:28:41;;;;;;;7.90;5.03;;;6.10;99.90;;;6.03;67.40;93746.66;5078365;28;20464;-56
2022/12/12 01:31:08;;;;;;;5.27;4.77;;;6.20;99.90;;;6.00;67.10;93742.53;5077495;28;20504;-58
2022/12/12 01:33:36;;;;;;;4.63;4.23;;;6.20;99.90;;;5.99;67.13;93747.91;5078036;28;20875;-58
2022/12/12 01:36:04;;;;;;;4.77;4.37;;;6.10;99.90;;;5.96;67.19;93751.56;5074332;28;20486;-58
2022/12/12 01:38:31;;;;;;;5.10;4.70;;;6.10;99.90;;;5.94;66.88;93750.91;5077045;28;20527;-59
2022/12/12 01:41:00;;;;;;;4.83;4.30;;;6.10;99.90;;;5.89;66.36;93734.84;5079809;28;20547;-58
2022/12/12 01:43:29;;;;;;;14.23;4.33;;;6.00;99.90;;;5.87;66.57;93749.78;5077271;28;20859;-58
2022/12/12 01:46:39;;;;;;;6.47;4.67;;;6.00;99.90;;;5.85;66.61;93751.72;5075000;28;20577;-58
2022/12/12 01:49:15;;;;;;;6.57;5.30;;;6.00;99.90;;;5.85;67.09;93756.94;5075615;28;20458;-58
2022/12/12 01:51:42;;;;;;;4.80;4.40;;;6.00;99.90;;;5.81;66.85;93760.78;5074872;28;20977;-58
2022/12/12 01:54:13;;;;;;;6.00;4.83;;;5.90;99.90;;;5.80;67.08;93761.75;5082214;28;20458;-59
2022/12/12 01:56:43;;;;;;;6.13;5.47;;;5.90;99.90;;;5.78;67.10;93753.22;5076251;28;20524;-59
2022/12/12 01:59:11;;;;;;;4.53;4.13;;;5.90;99.90;;;5.73;66.51;93759.72;5084811;28;20461;-59
2022/12/12 02:01:39;;;;;;;5.80;4.80;;;5.90;99.90;;;5.70;67.16;93765.19;5083143;28;20515;-56
2022/12/12 02:04:06;;;;;;;5.00;4.53;;;5.80;99.90;;;5.69;66.67;93753.09;5082509;28;20776;-57
2022/12/12 02:06:34;;;;;;;8.30;5.10;;;5.80;99.90;;;5.68;66.96;93753.25;5085391;28;20466;-56
2022/12/12 02:09:05;;;;;;;4.77;4.00;;;5.80;99.90;;;5.65;66.52;93751.72;5075572;28;20455;-59
2022/12/12 02:11:32;;;;;;;5.33;4.93;;;5.80;99.90;;;5.62;66.46;93766.84;5079559;28;20462;-56
2022/12/12 02:14:01;;;;;;;5.47;4.97;;;5.80;99.90;;;5.60;66.68;93774.78;5073286;28;20512;-54
2022/12/12 02:16:41;;;;;;;5.17;4.77;;;5.70;99.90;;;5.58;66.60;93771.50;5080076;28;20465;-58
2022/12/12 02:19:29;;;;;;;4.60;4.20;;;5.70;99.90;;;5.56;66.60;93768.19;5083640;28;20480;-53
2022/12/12 02:21:59;;;;;;;4.77;4.17;;;5.70;99.90;;;5.53;66.56;93771.06;5084068;28;20507;-56
2022/12/12 02:25:05;;;;;;;4.90;4.50;;;5.70;99.90;;;5.49;67.04;93761.91;5082861;28;21090;-57
2022/12/12 02:27:57;;;;;;;5.13;4.73;;;5.70;99.90;;;5.45;66.64;93763.94;5067125;28;21076;-59
2022/12/12 02:30:27;;;;;;;5.40;4.90;;;5.60;99.90;;;5.42;66.63;93763.38;5080707;28;20607;-58
2022/12/12 02:33:26;;;;;;;5.17;4.70;;;5.60;99.90;;;5.39;66.66;93765.31;5083858;28;20482;-55
2022/12/12 02:36:01;;;;;;;4.20;3.90;;;5.50;99.90;;;5.34;66.95;93764.88;5078265;28;20538;-58
2022/12/12 02:38:30;;;;;;;4.73;4.43;;;5.50;99.90;;;5.31;66.85;93759.94;5076932;28;20548;-58
2022/12/12 02:41:07;;;;;;;6.10;4.83;;;5.50;99.90;;;5.28;67.16;93760.22;5072930;28;20536;-58
2022/12/12 02:43:39;;;;;;;6.57;5.90;;;5.50;99.90;;;5.26;66.88;93763.94;5080519;28;21184;-56
2022/12/12 02:46:10;;;;;;;6.10;5.20;;;5.40;99.90;;;5.21;67.14;93764.34;5071902;28;20550;-58
2022/12/12 02:48:41;;;;;;;6.50;5.90;;;5.40;99.90;;;5.16;66.74;93762.13;5080013;28;20997;-57
2022/12/12 02:51:09;;;;;;;6.80;6.10;;;5.40;99.90;;;5.11;67.09;93758.28;5081487;28;20481;-55
2022/12/12 02:53:36;;;;;;;7.70;4.70;;;5.30;99.90;;;5.05;67.01;93758.81;5078899;28;20454;-54
2022/12/12 02:56:05;;;;;;;5.53;5.00;;;5.30;99.90;;;5.01;67.09;93763.47;5080042;28;21056;-56
2022/12/12 02:58:33;;;;;;;6.00;5.40;;;5.20;99.90;;;4.98;67.58;93759.34;5071423;28;20490;-58
2022/12/12 03:01:11;;;;;;;5.70;5.20;;;5.20;99.90;;;4.98;67.69;93759.34;5076938;28;21026;-59
2022/12/12 03:09:41;;;;;;;5.87;5.27;;;5.10;99.90;;;4.96;67.69;93760.44;5077146;28;20485;-61
2022/12/12 03:12:11;;;;;;;9.00;6.30;;;5.10;99.90;;;4.96;67.74;93760.44;5074158;28;20473;-58
2022/12/12 03:14:48;;;;;;;7.70;6.03;;;5.10;99.90;;;4.95;67.85;93761.41;5081455;28;20516;-59
2022/12/12 03:17:19;;;;;;;8.23;7.33;;;5.10;99.90;;;4.89;67.77;93754.94;5083805;28;20527;-58
2022/12/12 03:19:53;;;;;;;9.20;7.00;;;5.10;99.90;;;4.90;68.14;93767.00;5083175;28;20580;-55
2022/12/12 03:22:24;;;;;;;9.47;7.13;;;5.10;99.90;;;4.86;67.90;93755.19;5076348;28;20459;-56
2022/12/12 03:24:57;;;;;;;7.67;6.77;;;5.00;99.90;;;4.82;67.49;93759.84;5086390;28;20891;-59
2022/12/12 03:27:28;;;;;;;7.93;7.13;;;5.00;99.90;;;4.80;67.71;93761.78;5080455;28;20435;-58
2022/12/12 03:29:57;;;;;;;9.30;7.10;;;5.00;99.90;;;4.77;67.97;93767.25;5078818;28;20944;-58
2022/12/12 03:32:27;;;;;;;9.27;6.40;;;5.00;99.90;;;4.78;68.18;93768.06;5079116;28;20992;-55
2022/12/12 03:34:59;;;;;;;10.00;7.30;;;5.00;99.90;;;4.76;68.35;93770.81;5082393;28;20535;-59
2022/12/12 03:37:28;;;;;;;7.10;6.40;;;5.00;99.90;;;4.76;68.29;93773.41;5080523;28;20569;-56
2022/12/12 03:39:57;;;;;;;7.07;6.47;;;5.00;99.90;;;4.75;68.29;93770.94;5080297;28;20885;-58
2022/12/12 03:42:27;;;;;;;10.63;7.30;;;5.00;99.90;;;4.74;68.31;93780.53;5081921;28;21018;-54
2022/12/12 03:44:58;;;;;;;8.60;7.50;;;4.90;99.90;;;4.75;68.45;93783.97;5078819;28;20474;-58
2022/12/12 03:47:27;;;;;;;7.17;6.40;;;5.00;99.90;;;4.75;68.85;93787.38;5081646;28;20454;-59
2022/12/12 03:49:59;;;;;;;8.17;7.00;;;4.90;99.90;;;4.76;68.40;93785.63;5078278;28;20536;-58
2022/12/12 03:52:29;;;;;;;6.73;6.03;;;4.90;99.90;;;4.77;68.72;93787.25;5077601;28;20447;-56
2022/12/12 03:54:59;;;;;;;7.43;6.77;;;4.90;99.90;;;4.77;68.52;93792.47;5079079;28;20617;-58
2022/12/12 03:57:29;;;;;;;7.03;6.30;;;4.90;99.90;;;4.77;68.45;93805.47;5080509;28;20477;-55
2022/12/12 03:59:59;;;;;;;7.30;6.40;;;5.00;99.90;;;4.76;68.61;93812.47;5075657;28;20560;-55
2022/12/12 04:02:30;;;;;;;7.10;6.40;;;5.00;99.90;;;4.77;68.59;93810.69;5080521;28;20845;-56
2022/12/12 04:05:04;;;;;;;7.20;6.50;;;4.90;99.90;;;4.74;68.51;93797.94;5081429;28;20478;-59
2022/12/12 04:07:33;;;;;;;7.03;6.33;;;4.90;99.90;;;4.74;68.54;93810.94;5081185;28;20464;-56
2022/12/12 04:13:02;;;;;;;9.73;7.07;;;4.90;99.90;;;4.70;68.86;93806.97;5074194;28;20569;-58
2022/12/12 04:15:55;;;;;;;8.93;6.10;;;4.90;99.90;;;4.70;69.08;93806.97;5076236;28;20474;-59
2022/12/12 04:18:36;;;;;;;7.73;6.80;;;4.90;99.90;;;4.70;69.15;93823.41;5080786;28;20474;-56
2022/12/12 04:24:03;;;;;;;9.47;7.20;;;4.90;99.90;;;4.70;69.31;93822.59;5083903;28;20433;-58
2022/12/12 04:26:39;;;;;;;8.63;6.70;;;4.90;99.90;;;4.69;69.23;93826.16;5082485;28;20577;-58
2022/12/12 04:29:31;;;;;;;9.67;7.80;;;4.90;99.90;;;4.70;69.20;93823.41;5075112;28;20473;-56
2022/12/12 04:32:03;;;;;;;8.50;7.00;;;4.90;99.90;;;4.70;69.05;93828.63;5081653;28;20446;-57
2022/12/12 04:34:39;;;;;;;8.53;7.63;;;4.90;99.90;;;4.70;69.36;93830.41;5074063;28;20486;-55
2022/12/12 04:37:08;;;;;;;12.00;7.87;;;4.90;99.90;;;4.70;69.16;93833.03;5076807;28;20507;-58
2022/12/12 04:39:36;;;;;;;10.53;6.93;;;4.90;99.90;;;4.67;68.74;93823.69;5068367;28;20485;-58
2022/12/12 04:42:03;;;;;;;7.43;6.73;;;4.90;99.90;;;4.66;68.91;93825.47;5076188;28;20458;-55
2022/12/12 04:44:30;;;;;;;9.90;7.80;;;4.90;99.90;;;4.68;69.10;93814.91;5075956;28;20489;-59
2022/12/12 04:46:58;;;;;;;9.60;7.90;;;4.80;99.90;;;4.69;68.73;93810.53;5083747;28;20458;-56
2022/12/12 04:49:28;;;;;;;9.13;8.17;;;4.90;99.90;;;4.66;68.99;93815.06;5080323;28;20478;-56
2022/12/12 04:51:59;;;;;;;9.77;8.30;;;4.90;99.90;;;4.65;68.85;93821.19;5074909;28;20969;-57
2022/12/12 04:54:32;;;;;;;9.60;8.57;;;4.90;99.90;;;4.64;68.86;93832.56;5083509;28;20451;-58
2022/12/12 04:57:01;;;;;;;12.13;9.07;;;4.80;99.90;;;4.62;69.25;93826.66;5074042;28;20442;-57
2022/12/12 04:59:29;;;;;;;11.67;8.53;;;4.80;99.90;;;4.62;69.19;93825.84;5075540;28;20524;-55
2022/12/12 05:02:00;;;;;;;10.93;8.90;;;4.80;99.90;;;4.61;69.20;93825.00;5080196;28;20458;-54
2022/12/12 05:04:30;;;;;;;13.57;9.70;;;4.80;99.90;;;4.63;69.42;93832.69;5076059;28;20878;-55
2022/12/12 05:06:59;;;;;;;16.10;11.70;;;4.80;99.90;;;4.62;69.45;93831.88;5074955;28;20458;-57
2022/12/12 05:09:28;;;;;;;15.20;11.23;;;4.80;99.90;;;4.64;69.26;93829.97;5077277;28;21031;-59
2022/12/12 05:11:55;;;;;;;17.63;11.90;;;4.80;99.90;;;4.66;69.40;93822.00;5079121;28;20998;-56
2022/12/12 05:14:22;;;;;;;17.10;11.83;;;4.90;99.90;;;4.67;69.41;93829.69;5079286;28;20474;-59
2022/12/12 05:16:52;;;;;;;15.40;11.70;;;4.90;99.90;;;4.70;69.79;93823.41;5078878;28;21095;-56
2022/12/12 05:19:20;;;;;;;17.67;11.17;;;4.90;99.90;;;4.73;69.59;93830.16;5079531;28;20549;-58
2022/12/12 05:21:48;;;;;;;23.43;11.93;;;4.90;99.90;;;4.76;69.74;93838.53;5079757;28;20462;-58
2022/12/12 05:24:15;;;;;;;17.97;12.30;;;4.90;99.90;;;4.78;69.58;93841.00;5079856;28;20484;-59
2022/12/12 05:26:44;;;;;;;14.37;11.00;;;4.90;99.90;;;4.80;69.70;93846.91;5074915;28;20454;-55
2022/12/12 05:29:11;;;;;;;14.30;10.53;;;5.00;99.90;;;4.80;69.51;93841.69;5082621;28;20502;-57
2022/12/12 05:31:38;;;;;;;13.57;9.77;;;5.00;99.90;;;4.82;70.02;93847.59;5080750;28;20454;-58
2022/12/12 05:34:06;;;;;;;17.70;11.93;;;5.00;99.90;;;4.84;69.71;93840.47;5073637;28;20546;-56
2022/12/12 05:36:33;;;;;;;14.83;10.77;;;5.00;99.90;;;4.85;69.95;93839.53;5079139;28;20469;-57
2022/12/12 05:39:01;;;;;;;17.90;11.30;;;5.00;99.90;;;4.84;69.40;93849.09;5083880;28;20512;-58
2022/12/12 05:41:28;;;;;;;18.93;13.10;;;5.00;99.90;;;4.83;69.23;93844.03;5080655;28;20458;-55
2022/12/12 05:43:57;;;;;;;22.83;14.10;;;5.00;99.90;;;4.80;69.38;93854.72;5082907;28;20458;-58
2022/12/12 05:46:24;;;;;;;19.87;12.27;;;5.00;99.90;;;4.79;69.51;93847.88;5078290;28;20453;-56
2022/12/12 05:48:51;;;;;;;17.37;13.43;;;5.00;99.90;;;4.79;69.21;93850.47;5079579;28;20553;-58
2022/12/12 05:51:19;;;;;;;19.90;13.33;;;5.00;99.90;;;4.80;69.53;93847.75;5076479;28;20451;-57
2022/12/12 05:53:47;;;;;;;22.47;14.20;;;5.00;99.90;;;4.82;69.68;93850.22;5075472;28;20992;-56
2022/12/12 05:56:14;;;;;;;24.27;15.40;;;5.00;99.90;;;4.82;69.66;93864.06;5077759;28;20554;-58
2022/12/12 05:58:41;;;;;;;27.63;15.77;;;5.00;99.90;;;4.83;69.46;93876.13;5080780;28;20501;-59
2022/12/12 06:01:10;;;;;;;30.17;16.37;;;5.00;99.90;;;4.85;69.80;93876.00;5075302;28;20496;-58
2022/12/12 06:03:37;;;;;;;21.00;14.67;;;5.00;99.90;;;4.87;69.85;93876.69;5080915;28;20450;-58
2022/12/12 06:06:05;;;;;;;19.77;14.30;;;5.00;99.90;;;4.88;69.82;93859.28;5076183;28;20997;-56
2022/12/12 06:08:32;;;;;;;21.30;14.00;;;5.00;99.90;;;4.90;69.60;93873.81;5078521;28;20451;-56
2022/12/12 06:11:00;;;;;;;21.27;12.50;;;5.10;99.90;;;4.92;69.63;93858.88;5076913;28;20469;-59
2022/12/12 06:13:27;;;;;;;23.40;14.43;;;5.10;99.90;;;4.91;69.71;93875.50;5079582;28;20470;-56
2022/12/12 06:15:54;;;;;;;27.00;13.63;;;5.10;99.90;;;4.92;69.52;93879.72;5077962;28;20990;-57
2022/12/12 06:18:23;;;;;;;19.77;14.27;;;5.10;99.90;;;4.94;69.63;93877.00;5081330;28;20497;-58
2022/12/12 06:20:50;;;;;;;21.03;14.40;;;5.10;99.90;;;4.96;69.31;93885.53;5078711;28;20559;-56
2022/12/12 06:23:18;;;;;;;20.07;14.80;;;5.10;99.90;;;4.97;69.29;93887.16;5081843;28;20841;-55
2022/12/12 06:25:45;;;;;;;21.70;13.40;;;5.10;99.90;;;4.97;69.35;93897.56;5079235;28;20466;-59
2022/12/12 06:28:12;;;;;;;18.33;11.20;;;5.10;99.90;;;4.98;69.32;93889.63;5075192;28;20446;-54
2022/12/12 06:30:40;;;;;;;18.30;11.67;;;5.20;99.90;;;4.99;69.15;93896.50;5076512;28;20485;-61
2022/12/12 06:33:07;;;;;;;15.50;10.20;;;5.20;99.90;;;5.01;69.10;93904.19;5073404;28;20446;-59
2022/12/12 06:35:36;;;;;;;15.00;11.00;;;5.20;99.90;;;5.02;69.22;93906.66;5076362;28;20489;-59
2022/12/12 06:38:03;;;;;;;22.13;12.10;;;5.20;99.90;;;5.06;69.14;93898.59;5074709;28;20497;-59
2022/12/12 06:40:30;;;;;;;17.10;10.67;;;5.20;99.90;;;5.07;69.12;93903.66;5080880;28;20559;-59
2022/12/12 06:42:58;;;;;;;19.03;11.90;;;5.20;99.90;;;5.12;68.87;93905.88;5080603;28;20454;-59
2022/12/12 06:45:25;;;;;;;17.47;12.00;;;5.30;99.90;;;5.15;69.22;93905.63;5081559;28;20473;-57
2022/12/12 06:47:52;;;;;;;15.20;10.83;;;5.30;99.90;;;5.18;69.04;93911.38;5078041;28;20481;-55
2022/12/12 06:50:20;;;;;;;14.50;10.80;;;5.30;99.90;;;5.24;68.69;93920.47;5077962;28;20993;-57
2022/12/12 06:52:48;;;;;;;17.10;11.50;;;5.40;99.90;;;5.28;68.88;93906.19;5079035;28;20455;-56
2022/12/12 06:55:16;;;;;;;17.73;11.90;;;5.50;99.90;;;5.37;71.49;93921.06;5082630;28;20469;-57
2022/12/12 06:57:43;;;;;;;13.87;10.80;;;5.50;99.90;;;5.50;71.93;93920.00;5082377;28;20503;-55
2022/12/12 07:00:11;;;;;;;12.17;10.10;;;5.60;99.90;;;5.60;70.50;93926.09;5082702;28;20473;-59
2022/12/12 07:02:39;;;;;;;15.67;10.20;;;5.70;99.90;;;5.68;69.22;93933.25;5078323;28;20951;-58
2022/12/12 07:05:07;;;;;;;14.77;11.53;;;5.80;99.90;;;5.71;69.08;93931.19;5081733;28;20994;-59
2022/12/12 07:07:34;;;;;;;15.43;12.13;;;5.90;99.90;;;5.75;68.60;93924.75;5079445;28;20544;-58
2022/12/12 07:10:03;;;;;;;20.83;11.83;;;5.90;99.90;;;5.89;69.39;93935.78;5079600;28;20559;-58
2022/12/12 07:12:31;;;;;;;19.17;13.30;;;6.00;99.90;;;6.09;68.18;93937.47;5080872;28;20450;-58
2022/12/12 07:14:58;;;;;;;19.53;12.00;;;6.10;99.90;;;6.26;67.86;93943.81;5079157;28;20467;-59
2022/12/12 07:17:25;;;;;;;19.40;12.53;;;6.30;99.90;;;6.48;68.04;93946.31;5081535;28;20965;-62
2022/12/12 07:19:52;;;;;;;17.90;13.53;;;6.50;99.90;;;6.65;67.54;93945.59;5079055;28;20497;-55
2022/12/12 07:22:20;;;;;;;19.57;13.83;;;6.70;99.90;;;6.79;67.35;93944.34;5082384;28;20462;-58
2022/12/12 07:24:47;;;;;;;21.10;13.17;;;6.90;99.90;;;6.82;66.79;93944.88;5078981;28;20577;-56
2022/12/12 07:27:16;;;;;;;21.87;14.83;;;7.00;99.90;;;6.88;66.29;93950.50;5082514;28;20458;-56
2022/12/12 07:29:43;;;;;;;21.07;13.40;;;7.00;99.90;;;6.92;66.26;93957.13;5071752;28;20474;-59
2022/12/12 07:32:10;;;;;;;27.37;15.80;;;7.00;99.90;;;6.96;65.97;93968.94;5076784;28;20519;-55
2022/12/12 07:34:38;;;;;;;24.87;15.77;;;7.10;99.90;;;7.00;66.10;93978.97;5071996;28;20471;-60
2022/12/12 07:37:05;;;;;;;23.90;15.87;;;7.10;99.90;;;7.04;65.79;93981.31;5077346;28;20449;-59
2022/12/12 07:39:33;;;;;;;21.17;14.63;;;7.20;99.90;;;7.07;65.29;93978.44;5076157;28;20548;-55
2022/12/12 07:42:00;;;;;;;22.43;15.80;;;7.20;99.90;;;7.17;65.58;93985.28;5082392;28;20439;-59
2022/12/12 07:44:29;;;;;;;27.37;17.10;;;7.30;99.90;;;7.41;65.24;93991.81;5078523;28;20536;-58
2022/12/12 07:46:58;;;;;;;24.90;15.40;;;7.50;99.90;;;7.70;65.21;93990.91;5082090;28;20452;-58
2022/12/12 07:49:25;;;;;;;27.73;15.70;;;7.70;99.90;;;7.96;64.47;93991.03;5073674;28;20466;-58
2022/12/12 07:51:52;;;;;;;30.47;17.67;;;8.00;99.90;;;8.17;63.50;93992.59;5079638;28;21023;-59
2022/12/12 07:54:19;;;;;;;29.00;16.60;;;8.20;99.90;;;8.26;63.25;93992.53;5078084;28;20482;-59
2022/12/12 07:56:47;;;;;;;22.03;14.03;;;8.30;99.80;;;8.26;62.77;93995.16;5081335;28;20446;-55
2022/12/12 07:59:14;;;;;;;21.90;14.77;;;8.30;99.50;;;8.25;63.38;93997.91;5078800;28;20487;-59
2022/12/12 08:01:43;;;;;;;16.43;11.60;;;8.40;99.90;;;8.21;62.23;93993.94;5080146;28;20449;-56
2022/12/12 08:04:10;;;;;;;17.90;12.37;;;8.30;99.00;;;8.12;61.73;93995.66;5079196;28;20524;-59
2022/12/12 08:06:37;;;;;;;19.47;12.10;;;8.30;98.50;;;8.03;61.87;94020.09;5082083;28;20450;-55
2022/12/12 08:09:05;;;;;;;14.53;11.67;;;8.10;98.60;;;7.94;63.40;94024.41;5078289;28;20493;-56
2022/12/12 08:11:32;;;;;;;17.10;11.77;;;8.10;99.10;;;7.88;62.99;94017.97;5080375;28;20932;-56
2022/12/12 08:13:59;;;;;;;16.90;12.23;;;8.00;99.00;;;7.82;63.20;94030.78;5079255;28;20804;-56
2022/12/12 08:16:28;;;;;;;19.70;12.53;;;7.90;99.30;;;7.78;63.04;94022.41;5074176;28;20500;-56
2022/12/12 08:18:57;;;;;;;17.07;11.50;;;7.90;98.90;;;7.74;63.16;94021.03;5078483;28;20485;-56
2022/12/12 08:21:25;;;;;;;15.90;13.17;;;7.90;99.30;;;7.73;63.26;94024.66;5079528;28;20973;-59
2022/12/12 08:23:54;;;;;;;18.90;12.03;;;7.80;99.40;;;7.75;64.05;94027.13;5079986;28;20482;-59
2022/12/12 08:26:21;;;;;;;54.90;16.40;;;7.80;99.60;;;7.78;63.68;94032.88;5079357;28;20882;-57
2022/12/12 08:28:48;;;;;;;19.30;11.10;;;7.90;99.80;;;7.83;63.96;94037.69;5076729;28;20463;-59
2022/12/12 08:31:16;;;;;;;16.47;12.10;;;7.90;99.70;;;7.88;63.25;94041.53;5078149;28;20454;-58
2022/12/12 08:33:43;;;;;;;12.47;10.57;;;7.90;99.40;;;7.95;63.44;94046.16;5079377;28;20451;-58
2022/12/12 08:36:17;;;;;;;12.80;10.90;;;8.00;99.40;;;7.98;62.99;94036.25;5078341;28;21007;-57
2022/12/12 08:38:45;;;;;;;15.30;11.37;;;8.00;99.40;;;8.03;63.50;94035.81;5078390;28;20555;-60
2022/12/12 08:41:12;;;;;;;17.70;11.70;;;8.10;99.40;;;8.04;62.98;94027.81;5071755;28;21026;-56
2022/12/12 08:43:40;;;;;;;18.00;12.30;;;8.10;99.30;;;8.08;63.25;94025.72;5078760;28;20992;-56
2022/12/12 08:46:08;;;;;;;13.97;10.20;;;8.10;99.30;;;8.12;63.30;94027.09;5076065;28;20475;-60
2022/12/12 08:48:35;;;;;;;17.60;11.60;;;8.20;99.40;;;8.15;63.05;94026.78;5077072;28;20448;-58
2022/12/12 08:51:02;;;;;;;14.60;11.30;;;8.20;99.30;;;8.15;62.68;94024.19;5077353;28;20470;-58
2022/12/12 08:53:31;;;;;;;16.77;11.87;;;8.20;99.10;;;8.13;63.00;94020.84;5081153;28;20458;-54
2022/12/12 08:55:58;;;;;;;15.80;11.47;;;8.20;99.20;;;8.13;62.81;94018.25;5077738;28;20471;-58
2022/12/12 08:58:26;;;;;;;15.30;12.37;;;8.20;99.10;;;8.15;62.19;94026.78;5082668;28;20446;-56
2022/12/12 09:00:55;;;;;;;18.30;12.47;;;8.20;98.80;;;8.14;62.97;94016.47;5077026;28;20481;-58
2022/12/12 09:03:22;;;;;;;30.27;13.40;;;8.20;98.90;;;8.15;63.04;94020.72;5083959;28;20492;-54
2022/12/12 09:05:49;;;;;;;16.23;12.80;;;8.20;99.00;;;8.16;63.39;94007.47;5082535;28;20478;-58
2022/12/12 09:08:17;;;;;;;23.60;14.13;;;8.20;99.20;;;8.17;62.09;94009.13;5084450;28;20446;-55
2022/12/12 09:10:48;;;;;;;16.80;12.60;;;8.20;99.00;;;8.12;61.86;94014.00;5080980;28;20565;-58
2022/12/12 09:13:16;;;;;;;19.97;14.00;;;8.20;98.60;;;8.04;62.69;94003.41;5083354;28;20525;-57
2022/12/12 09:15:43;;;;;;;25.33;14.40;;;8.20;98.90;;;8.02;62.74;94010.59;5082787;28;20470;-58
2022/12/12 09:18:10;;;;;;;23.27;14.13;;;8.10;99.20;;;8.02;63.26;94007.97;5083404;28;20637;-59
2022/12/12 09:20:37;;;;;;;18.70;13.30;;;8.10;99.20;;;8.03;63.24;94012.25;5082797;28;20558;-56
2022/12/12 09:23:05;;;;;;;18.80;11.50;;;8.10;99.20;;;8.00;63.08;94017.78;5083072;28;20461;-59
2022/12/12 09:25:32;;;;;;;18.40;11.73;;;8.10;99.40;;;8.00;63.52;94017.78;5083370;28;20470;-57
2022/12/12 09:28:01;;;;;;;16.47;9.67;;;8.10;99.40;;;8.00;63.22;94008.13;5083377;28;20450;-56
2022/12/12 09:30:28;;;;;;;8.43;7.50;;;8.10;99.40;;;8.03;63.46;94007.00;5083136;28;20481;-59
2022/12/12 09:32:56;;;;;;;9.00;7.37;;;8.10;99.40;;;8.05;63.03;94010.31;5080330;28;20458;-59
2022/12/12 09:35:23;;;;;;;12.13;7.83;;;8.10;98.90;;;8.05;62.94;94000.63;5084089;28;20477;-57
2022/12/12 09:37:50;;;;;;;9.30;8.23;;;8.10;99.00;;;8.04;62.59;94006.88;5081752;28;20966;-60
2022/12/12 09:40:20;;;;;;;12.70;10.13;;;8.10;98.80;;;8.02;63.37;94000.13;5083618;28;20504;-54
2022/12/12 09:42:49;;;;;;;17.57;12.80;;;8.10;99.00;;;8.00;63.03;93988.97;5081118;28;21093;-58
2022/12/12 09:45:18;;;;;;;22.73;13.13;;;8.10;99.20;;;7.96;63.70;93991.03;5084184;28;20462;-57
2022/12/12 09:47:47;;;;;;;18.60;13.90;;;8.00;99.40;;;7.95;63.86;93988.56;5085122;28;20453;-58
2022/12/12 09:50:19;;;;;;;20.43;13.30;;;8.00;99.50;;;7.98;63.71;93990.88;5078530;28;20553;-57
2022/12/12 09:52:46;;;;;;;23.97;14.93;;;8.00;99.80;;;8.02;63.86;93993.06;5076829;28;20874;-56
2022/12/12 09:55:34;;;;;;;20.63;14.13;;;8.10;99.90;;;8.08;63.57;93991.69;5084372;28;20468;-58
2022/12/12 09:58:05;;;;;;;29.50;15.23;;;8.10;99.90;;;8.09;64.26;93993.34;5087430;28;20528;-55
2022/12/12 10:00:37;;;;;;;19.93;14.00;;;8.10;99.90;;;8.12;63.63;93982.56;5077970;28;20494;-57
2022/12/12 10:03:27;;;;;;;18.43;12.73;;;8.10;99.90;;;8.16;64.10;93981.28;5083447;28;20445;-60
2022/12/12 10:06:01;;;;;;;17.50;13.03;;;8.20;99.90;;;8.21;63.99;93978.22;5080723;28;20469;-57
2022/12/12 10:08:33;;;;;;;20.03;13.80;;;8.20;99.90;;;8.25;63.92;93974.34;5083266;28;20450;-58
2022/12/12 10:11:05;;;;;;;20.83;12.90;;;8.30;99.80;;;8.26;63.77;93968.97;5081851;28;20488;-54
2022/12/12 10:13:34;;;;;;;21.10;13.90;;;8.30;99.60;;;8.30;64.01;93976.53;5079885;28;20438;-56
2022/12/12 10:16:06;;;;;;;26.53;14.60;;;8.30;99.90;;;8.35;64.27;93984.75;5083146;28;21047;-56
2022/12/12 10:18:36;;;;;;;20.83;14.57;;;8.40;99.90;;;8.38;63.90;93980.06;5080896;28;20800;-59
2022/12/12 10:21:05;;;;;;;22.87;16.13;;;8.40;99.90;;;8.39;63.98;93967.78;5083929;28;20470;-57
2022/12/12 10:23:35;;;;;;;29.13;16.97;;;8.40;99.80;;;8.40;63.70;93964.19;5080272;28;20450;-59
2022/12/12 10:26:05;;;;;;;74.63;19.63;;;8.50;99.80;;;8.46;64.14;93954.91;5083733;28;20899;-58
2022/12/12 10:28:32;;;;;;;31.00;20.80;;;8.50;99.70;;;8.60;63.63;93954.41;5079904;28;20820;-59
2022/12/12 10:31:20;;;;;;;313.83;36.67;;;8.60;99.70;;;9.44;63.21;93939.09;5083046;28;20849;-58
2022/12/12 10:33:59;;;;;;;26.87;16.40;;;9.20;99.90;;;10.72;60.85;93947.72;5079470;28;20495;-59
2022/12/12 10:36:39;;;;;;;34.23;19.77;;;10.20;99.10;;;12.13;58.30;93937.72;5075920;28;20962;-56
2022/12/12 10:39:14;;;;;;;84.83;21.83;;;11.50;97.90;;;13.00;55.80;93918.22;5079182;28;20483;-59
2022/12/12 10:41:44;;;;;;;107.23;25.40;;;12.30;95.60;;;13.33;52.82;93931.13;5080114;28;20978;-56
2022/12/12 10:44:20;;;;;;;108.17;27.80;;;12.90;92.80;;;13.36;53.94;93930.78;5082791;28;20973;-59
2022/12/12 10:46:51;;;;;;;36.37;22.17;;;13.20;93.10;;;13.27;53.83;93930.00;5081959;28;20506;-56